Time;durP1;ratioP1;P1;durP2;ratioP2;P2;SDS_P1;SDS_P2;PMS_P1;PMS_P2;Temp;Humidity;BMP_temperature;BMP_pressure;BME280_temperature;BME280_humidity;BME280_pressure;Samples;Min_cycle;Max_cycle;Signal;HPM_P1;HPM_P2
2023/01/06 00:02:07;;;;;;;13.05;3.65;;;10.30;99.90;;;;;;5072503;28;20032;-72
2023/01/06 00:04:33;;;;;;;10.40;3.58;;;10.30;99.90;;;;;;5067648;28;20099;-75
2023/01/06 00:06:58;;;;;;;8.63;4.22;;;10.30;99.90;;;;;;5071674;28;20060;-72
2023/01/06 00:09:24;;;;;;;9.60;3.47;;;10.30;99.90;;;;;;5075045;28;20033;-72
2023/01/06 00:11:49;;;;;;;7.15;3.33;;;10.30;99.90;;;;;;5067553;28;20046;-72
2023/01/06 00:14:15;;;;;;;11.10;3.60;;;10.30;99.90;;;;;;5071763;28;20036;-72
2023/01/06 00:16:41;;;;;;;7.68;3.47;;;10.30;99.90;;;;;;5071162;28;20490;-73
2023/01/06 00:19:09;;;;;;;10.30;3.88;;;10.30;99.90;;;;;;5070680;28;20370;-73
2023/01/06 00:21:34;;;;;;;7.32;3.33;;;10.30;99.90;;;;;;5071377;28;20272;-72
2023/01/06 00:24:00;;;;;;;11.20;3.78;;;10.30;99.90;;;;;;5071662;28;20040;-72
2023/01/06 00:26:26;;;;;;;6.28;3.08;;;10.30;99.90;;;;;;5074940;28;20032;-72
2023/01/06 00:28:54;;;;;;;14.60;3.40;;;10.40;99.90;;;;;;5075030;28;20452;-72
2023/01/06 00:31:20;;;;;;;8.93;3.50;;;10.40;99.90;;;;;;5067151;28;20036;-72
2023/01/06 00:33:46;;;;;;;7.82;3.30;;;10.30;99.90;;;;;;5070708;28;20040;-72
2023/01/06 00:36:13;;;;;;;8.45;4.05;;;10.30;99.90;;;;;;5068973;28;20040;-72
2023/01/06 00:38:39;;;;;;;9.60;3.47;;;10.40;99.90;;;;;;5076998;28;20043;-72
2023/01/06 00:42:02;;;;;;;12.05;3.78;;;10.40;99.90;;;;;;5071880;28;20032;-72
2023/01/06 00:43:52;;;;;;;6.25;3.22;;;10.40;99.90;;;;;;5071821;28;20035;-73
2023/01/06 00:46:18;;;;;;;15.68;3.95;;;10.40;99.90;;;;;;5070802;28;20086;-72
2023/01/06 00:48:43;;;;;;;8.25;3.05;;;10.40;99.90;;;;;;5070776;28;20037;-72
2023/01/06 00:51:09;;;;;;;9.07;3.42;;;10.40;99.90;;;;;;5068838;28;20037;-72
2023/01/06 00:53:35;;;;;;;9.98;2.97;;;10.40;99.90;;;;;;5075252;28;20461;-72
2023/01/06 00:56:01;;;;;;;7.88;3.33;;;10.40;99.90;;;;;;5071486;28;20449;-72
2023/01/06 00:58:33;;;;;;;7.45;3.30;;;10.40;99.90;;;;;;5073021;28;20044;-72
2023/01/06 01:01:03;;;;;;;12.98;3.50;;;10.40;99.90;;;;;;5074419;28;20477;-72
2023/01/06 01:03:30;;;;;;;7.60;3.25;;;10.40;99.90;;;;;;5090533;28;20039;-72
2023/01/06 01:06:00;;;;;;;8.07;3.65;;;10.40;99.90;;;;;;5067321;28;20158;-72
2023/01/06 01:08:26;;;;;;;6.18;2.53;;;10.40;99.90;;;;;;5071404;28;20482;-73
2023/01/06 01:10:51;;;;;;;8.68;3.28;;;10.40;99.90;;;;;;5053764;28;20124;-72
2023/01/06 01:13:17;;;;;;;10.80;3.00;;;10.40;99.90;;;;;;5072966;28;20452;-72
2023/01/06 01:15:43;;;;;;;6.80;3.20;;;10.50;99.90;;;;;;5064001;28;20079;-73
2023/01/06 01:18:09;;;;;;;4.38;2.40;;;10.40;99.90;;;;;;5066324;28;20402;-72
2023/01/06 01:20:35;;;;;;;7.60;2.72;;;10.40;99.90;;;;;;5074524;28;20036;-72
2023/01/06 01:23:00;;;;;;;6.10;3.08;;;10.40;99.90;;;;;;5070893;28;20696;-72
2023/01/06 01:25:26;;;;;;;7.25;2.70;;;10.40;99.90;;;;;;5076672;28;20032;-72
2023/01/06 01:27:51;;;;;;;5.97;2.22;;;10.40;99.90;;;;;;5078844;28;20399;-72
2023/01/06 01:30:19;;;;;;;3.92;2.30;;;10.30;99.90;;;;;;5074558;28;20043;-72
2023/01/06 01:32:46;;;;;;;6.60;3.17;;;10.40;99.90;;;;;;5068430;28;20032;-72
2023/01/06 01:35:12;;;;;;;7.63;2.78;;;10.30;99.90;;;;;;5073982;28;20040;-73
2023/01/06 01:37:37;;;;;;;5.50;2.50;;;10.30;99.90;;;;;;5080128;28;20036;-72
2023/01/06 01:40:04;;;;;;;4.53;2.00;;;10.40;99.90;;;;;;5070563;28;20528;-72
2023/01/06 01:42:29;;;;;;;4.55;2.53;;;10.40;99.90;;;;;;5067476;28;20494;-72
2023/01/06 01:45:23;;;;;;;4.85;2.25;;;10.40;99.90;;;;;;5070419;28;20029;-72
2023/01/06 01:47:54;;;;;;;4.10;2.15;;;10.30;99.90;;;;;;5056463;28;20044;-72
2023/01/06 01:50:25;;;;;;;4.78;2.10;;;10.30;99.90;;;;;;5085354;28;20073;-72
2023/01/06 01:52:54;;;;;;;5.63;2.40;;;10.30;99.90;;;;;;5073178;28;20036;-72
2023/01/06 01:55:20;;;;;;;10.55;2.58;;;10.40;99.90;;;;;;5076991;28;20044;-72
2023/01/06 01:57:52;;;;;;;6.68;2.50;;;10.40;99.90;;;;;;5079124;28;20040;-72
2023/01/06 02:00:18;;;;;;;6.45;2.50;;;10.40;99.90;;;;;;5071451;28;20040;-73
2023/01/06 02:02:44;;;;;;;5.03;2.47;;;10.30;99.90;;;;;;5075776;28;20040;-72
2023/01/06 02:05:13;;;;;;;5.00;2.40;;;10.40;99.90;;;;;;5079011;28;20032;-73
2023/01/06 02:07:39;;;;;;;7.45;2.03;;;10.30;99.90;;;;;;5077288;28;20060;-73
2023/01/06 02:10:18;;;;;;;4.72;2.08;;;10.40;99.90;;;;;;5055790;28;20059;-72
2023/01/06 02:12:48;;;;;;;4.68;2.20;;;10.40;99.90;;;;;;5075690;28;20174;-72
2023/01/06 02:15:41;;;;;;;6.10;2.70;;;10.30;99.90;;;;;;5074409;28;20082;-72
2023/01/06 02:18:34;;;;;;;7.07;2.08;;;10.30;99.90;;;;;;5067885;28;20131;-72
2023/01/06 02:21:22;;;;;;;4.70;1.95;;;10.30;99.90;;;;;;5072458;28;20047;-72
2023/01/06 02:24:17;;;;;;;5.68;1.83;;;10.30;99.90;;;;;;5069061;28;20043;-72
2023/01/06 02:26:45;;;;;;;5.90;1.75;;;10.30;99.90;;;;;;5044417;28;20068;-73
2023/01/06 02:29:56;;;;;;;4.13;2.15;;;10.30;99.90;;;;;;5064326;28;20588;-72
2023/01/06 02:32:41;;;;;;;4.25;2.13;;;10.30;99.90;;;;;;5071121;28;20097;-72
2023/01/06 02:35:27;;;;;;;4.32;1.75;;;10.30;99.90;;;;;;5074136;28;20040;-73
2023/01/06 02:38:13;;;;;;;3.78;1.70;;;10.30;99.90;;;;;;5072177;28;20517;-72
2023/01/06 02:41:07;;;;;;;7.63;1.75;;;10.40;99.90;;;;;;5070848;28;20032;-72
2023/01/06 02:43:54;;;;;;;3.60;2.20;;;10.40;99.90;;;;;;5059339;28;20127;-73
2023/01/06 02:46:34;;;;;;;10.27;2.08;;;10.30;99.90;;;;;;5070681;28;20044;-73
2023/01/06 02:49:54;;;;;;;5.72;1.95;;;10.30;99.90;;;;;;5072144;28;20047;-72
2023/01/06 02:52:38;;;;;;;3.60;1.85;;;10.30;99.90;;;;;;5042051;28;20091;-72
2023/01/06 02:55:15;;;;;;;5.05;1.83;;;10.30;99.90;;;;;;5075082;28;20054;-72
2023/01/06 02:58:15;;;;;;;2.75;1.45;;;10.30;99.90;;;;;;5074311;28;20082;-73
2023/01/06 03:00:46;;;;;;;3.15;1.60;;;10.30;99.90;;;;;;5079187;28;20040;-72
2023/01/06 03:03:16;;;;;;;3.95;1.60;;;10.30;99.90;;;;;;5072761;28;20060;-72
2023/01/06 03:05:45;;;;;;;4.28;1.52;;;10.30;99.90;;;;;;5072137;28;20115;-72
2023/01/06 03:08:17;;;;;;;4.00;2.25;;;10.30;99.90;;;;;;5073257;28;20071;-72
2023/01/06 03:10:45;;;;;;;3.10;1.40;;;10.30;99.90;;;;;;5071632;28;20036;-73
2023/01/06 03:13:26;;;;;;;5.70;1.67;;;10.30;99.90;;;;;;5074192;28;20085;-72
2023/01/06 03:15:51;;;;;;;3.88;1.58;;;10.30;99.90;;;;;;5064291;28;20055;-72
2023/01/06 03:18:17;;;;;;;4.20;1.60;;;10.30;99.90;;;;;;5056652;28;20486;-72
2023/01/06 03:20:43;;;;;;;4.45;1.77;;;10.40;99.90;;;;;;5073408;28;20075;-73
2023/01/06 03:23:10;;;;;;;3.13;1.30;;;10.30;99.90;;;;;;5070088;28;20205;-73
2023/01/06 03:25:37;;;;;;;5.10;1.95;;;10.30;99.90;;;;;;5070781;28;20032;-73
2023/01/06 03:28:02;;;;;;;5.63;1.73;;;10.30;99.90;;;;;;5073820;28;20028;-73
2023/01/06 03:30:40;;;;;;;3.88;1.88;;;10.30;99.90;;;;;;5075565;28;20037;-73
2023/01/06 03:33:10;;;;;;;4.18;1.63;;;10.30;99.90;;;;;;5071074;28;20425;-72
2023/01/06 03:35:54;;;;;;;2.75;1.35;;;10.30;99.90;;;;;;5073920;28;20035;-72
2023/01/06 03:38:34;;;;;;;4.75;1.70;;;10.30;99.90;;;;;;5053003;28;20040;-73
2023/01/06 03:43:10;;;;;;;3.17;1.73;;;10.30;99.90;;;;;;5076455;28;20505;-73
2023/01/06 03:44:18;;;;;;;4.63;1.70;;;10.30;99.90;;;;;;5070385;28;20048;-72
2023/01/06 03:46:52;;;;;;;4.20;1.60;;;10.30;99.90;;;;;;5075826;28;20044;-72
2023/01/06 03:49:25;;;;;;;4.00;1.58;;;10.30;99.90;;;;;;5076670;28;20036;-73
2023/01/06 03:52:08;;;;;;;4.55;1.25;;;10.30;99.90;;;;;;5057319;28;20047;-73
2023/01/06 03:54:48;;;;;;;6.53;1.90;;;10.30;99.90;;;;;;5075197;28;20095;-73
2023/01/06 03:57:19;;;;;;;3.40;1.80;;;10.30;99.90;;;;;;5083123;28;20036;-73
2023/01/06 03:59:51;;;;;;;5.57;2.30;;;10.30;99.90;;;;;;5076820;28;20389;-73
2023/01/06 04:02:19;;;;;;;5.18;1.65;;;10.30;99.90;;;;;;5075687;28;20064;-73
2023/01/06 04:05:04;;;;;;;4.10;2.15;;;10.30;99.90;;;;;;5078470;28;20735;-73
2023/01/06 04:07:30;;;;;;;5.13;1.92;;;10.30;99.90;;;;;;5074197;28;20072;-73
2023/01/06 04:09:56;;;;;;;2.50;1.40;;;10.30;99.90;;;;;;5077163;28;20425;-73
2023/01/06 04:12:39;;;;;;;4.45;2.10;;;10.30;99.90;;;;;;5067082;28;20055;-73
2023/01/06 04:15:10;;;;;;;3.60;1.90;;;10.30;99.90;;;;;;5075942;28;20730;-73
2023/01/06 04:17:37;;;;;;;3.85;1.73;;;10.30;99.90;;;;;;5068425;28;20029;-73
2023/01/06 04:20:05;;;;;;;7.00;1.92;;;10.30;99.90;;;;;;5070168;28;20115;-73
2023/01/06 04:22:30;;;;;;;5.38;1.80;;;10.30;99.90;;;;;;5071090;28;20040;-73
2023/01/06 04:24:56;;;;;;;3.10;1.75;;;10.30;99.90;;;;;;5078634;28;20040;-73
2023/01/06 04:27:22;;;;;;;4.72;1.92;;;10.30;99.90;;;;;;5073228;28;20050;-73
2023/01/06 04:29:48;;;;;;;2.60;1.52;;;10.30;99.90;;;;;;5066966;28;20067;-73
2023/01/06 04:32:13;;;;;;;2.78;1.65;;;10.30;99.90;;;;;;5068931;28;20072;-73
2023/01/06 04:34:39;;;;;;;4.82;2.03;;;10.30;99.90;;;;;;5075244;28;20040;-73
2023/01/06 04:37:04;;;;;;;3.70;1.80;;;10.30;99.90;;;;;;5076970;28;20039;-73
2023/01/06 04:39:30;;;;;;;4.15;1.92;;;10.30;99.90;;;;;;5066673;28;20360;-73
2023/01/06 04:41:55;;;;;;;4.03;2.10;;;10.30;99.90;;;;;;5076771;28;20029;-73
2023/01/06 04:44:21;;;;;;;3.42;1.83;;;10.30;99.90;;;;;;5069158;28;20090;-73
2023/01/06 04:46:46;;;;;;;3.45;1.67;;;10.30;99.90;;;;;;5075461;28;20061;-73
2023/01/06 04:49:12;;;;;;;4.20;2.03;;;10.20;99.90;;;;;;5068184;28;20032;-73
2023/01/06 04:51:38;;;;;;;4.35;2.05;;;10.30;99.90;;;;;;5052227;28;20052;-73
2023/01/06 04:54:03;;;;;;;3.30;1.88;;;10.30;99.90;;;;;;5071093;28;20056;-73
2023/01/06 04:56:29;;;;;;;4.40;2.15;;;10.30;99.90;;;;;;5078727;28;20040;-73
2023/01/06 04:58:56;;;;;;;4.80;2.10;;;10.30;99.90;;;;;;5078974;28;20029;-73
2023/01/06 05:01:22;;;;;;;5.57;2.10;;;10.30;99.90;;;;;;5072607;28;20110;-73
2023/01/06 05:03:48;;;;;;;3.67;2.35;;;10.30;99.90;;;;;;5077732;28;20486;-73
2023/01/06 05:06:14;;;;;;;4.70;2.50;;;10.30;99.90;;;;;;5074861;28;20044;-73
2023/01/06 05:08:41;;;;;;;4.78;2.33;;;10.30;99.90;;;;;;5079261;28;20035;-73
2023/01/06 05:11:34;;;;;;;4.13;2.42;;;10.30;99.90;;;;;;5055682;28;20044;-72
2023/01/06 05:14:00;;;;;;;5.90;2.40;;;10.20;99.90;;;;;;5075115;28;20044;-72
2023/01/06 05:16:29;;;;;;;4.70;2.28;;;10.30;99.90;;;;;;5065772;28;20480;-73
2023/01/06 05:18:55;;;;;;;4.75;2.20;;;10.20;99.90;;;;;;5073117;28;20066;-72
2023/01/06 05:21:23;;;;;;;6.03;2.75;;;10.20;99.90;;;;;;5073816;28;20066;-72
2023/01/06 05:23:49;;;;;;;4.57;2.17;;;10.30;99.90;;;;;;5071857;28;20036;-73
2023/01/06 05:26:18;;;;;;;3.95;1.85;;;10.30;99.90;;;;;;5077817;28;20398;-72
2023/01/06 05:28:43;;;;;;;3.22;1.90;;;10.30;99.90;;;;;;5072745;28;20079;-72
2023/01/06 05:31:10;;;;;;;3.97;1.95;;;10.20;99.90;;;;;;5058100;28;20075;-72
2023/01/06 05:33:36;;;;;;;3.50;1.60;;;10.20;99.90;;;;;;5077197;28;20044;-72
2023/01/06 05:36:05;;;;;;;3.45;1.65;;;10.30;99.90;;;;;;5062716;28;20040;-73
2023/01/06 05:38:30;;;;;;;2.60;1.35;;;10.30;99.90;;;;;;5081935;28;20544;-73
2023/01/06 05:40:56;;;;;;;2.25;1.23;;;10.30;99.90;;;;;;5055564;28;20054;-73
2023/01/06 05:43:23;;;;;;;2.75;1.35;;;10.30;99.90;;;;;;5105837;27;20043;-72
2023/01/06 05:45:48;;;;;;;2.45;1.23;;;10.30;99.90;;;;;;5073981;28;20056;-73
2023/01/06 05:48:14;;;;;;;2.45;1.35;;;10.30;99.90;;;;;;5072450;28;20036;-73
2023/01/06 05:50:40;;;;;;;3.35;1.20;;;10.30;99.90;;;;;;5074239;28;20040;-73
2023/01/06 05:53:06;;;;;;;2.20;0.77;;;10.30;99.90;;;;;;5077534;28;20046;-73
2023/01/06 05:55:31;;;;;;;2.72;1.02;;;10.30;99.90;;;;;;5076513;28;20117;-72
2023/01/06 05:57:57;;;;;;;3.00;1.80;;;10.30;99.90;;;;;;5073400;28;20036;-73
2023/01/06 06:00:23;;;;;;;2.42;1.20;;;10.30;99.90;;;;;;5076341;28;20032;-73
2023/01/06 06:02:48;;;;;;;2.60;1.08;;;10.30;99.90;;;;;;5074291;28;20037;-73
2023/01/06 06:05:14;;;;;;;2.05;1.08;;;10.30;99.90;;;;;;5067741;28;22386;-72
2023/01/06 06:07:40;;;;;;;2.13;1.15;;;10.30;99.90;;;;;;5060170;28;20071;-73
2023/01/06 06:10:07;;;;;;;3.08;1.27;;;10.30;99.90;;;;;;5068480;28;20040;-72
2023/01/06 06:12:33;;;;;;;4.97;1.45;;;10.30;99.90;;;;;;5057808;28;20052;-73
2023/01/06 06:14:58;;;;;;;3.38;1.60;;;10.30;99.90;;;;;;5072395;28;20522;-73
2023/01/06 06:17:24;;;;;;;4.65;1.38;;;10.30;99.90;;;;;;5076159;28;20098;-73
2023/01/06 06:19:50;;;;;;;2.70;1.40;;;10.30;99.90;;;;;;5057166;28;20036;-73
2023/01/06 06:22:16;;;;;;;4.88;1.80;;;10.30;99.90;;;;;;5075160;28;20043;-73
2023/01/06 06:24:41;;;;;;;3.20;1.65;;;10.30;99.90;;;;;;5070716;28;20478;-73
2023/01/06 06:27:07;;;;;;;2.22;1.40;;;10.30;99.90;;;;;;5072302;28;20032;-73
2023/01/06 06:29:33;;;;;;;2.95;1.42;;;10.30;99.90;;;;;;5076762;28;20041;-73
2023/01/06 06:31:58;;;;;;;4.90;1.83;;;10.30;99.90;;;;;;5078400;28;20036;-73
2023/01/06 06:34:24;;;;;;;2.72;1.38;;;10.20;99.90;;;;;;5071327;28;20040;-73
2023/01/06 06:36:49;;;;;;;2.75;1.42;;;10.20;99.90;;;;;;5066300;28;20035;-73
2023/01/06 06:39:15;;;;;;;4.38;1.80;;;10.20;99.90;;;;;;5073662;28;20101;-73
2023/01/06 06:41:40;;;;;;;3.90;2.08;;;10.20;99.90;;;;;;5076045;28;20039;-73
2023/01/06 06:44:06;;;;;;;5.68;1.60;;;10.20;99.90;;;;;;5067956;28;20040;-73
2023/01/06 06:46:32;;;;;;;3.67;1.80;;;10.20;99.90;;;;;;5071445;28;20108;-73
2023/01/06 06:48:57;;;;;;;3.60;1.92;;;10.20;99.90;;;;;;5058237;28;20398;-73
2023/01/06 06:51:23;;;;;;;2.70;1.27;;;10.20;99.90;;;;;;5072637;28;20093;-73
2023/01/06 06:53:49;;;;;;;3.20;2.30;;;10.10;99.90;;;;;;5076504;28;20036;-73
2023/01/06 06:56:16;;;;;;;3.80;1.75;;;10.10;99.90;;;;;;5056622;28;20032;-73
2023/01/06 06:58:43;;;;;;;2.67;1.50;;;10.10;99.90;;;;;;5076926;28;20485;-73
2023/01/06 07:01:11;;;;;;;4.85;1.83;;;10.10;99.90;;;;;;5072281;28;20389;-73
2023/01/06 07:03:37;;;;;;;3.67;1.60;;;10.10;99.90;;;;;;5072457;28;20064;-73
2023/01/06 07:06:05;;;;;;;3.90;1.55;;;10.10;99.90;;;;;;5070485;28;20445;-72
2023/01/06 07:08:32;;;;;;;4.03;1.52;;;10.10;99.90;;;;;;5071131;28;20432;-73
2023/01/06 07:10:57;;;;;;;2.58;1.48;;;10.00;99.90;;;;;;5078240;28;20044;-72
2023/01/06 07:13:23;;;;;;;2.67;1.35;;;10.00;99.90;;;;;;5055539;28;20043;-73
2023/01/06 07:15:48;;;;;;;3.83;1.92;;;10.00;99.90;;;;;;5070813;28;20524;-73
2023/01/06 07:18:14;;;;;;;3.22;1.67;;;10.00;99.90;;;;;;5057979;28;20036;-73
2023/01/06 07:20:40;;;;;;;2.83;1.65;;;10.00;99.90;;;;;;5069256;28;20063;-72
2023/01/06 07:23:06;;;;;;;3.13;1.33;;;10.00;99.90;;;;;;5073475;28;20046;-73
2023/01/06 07:25:31;;;;;;;4.80;2.03;;;10.00;99.90;;;;;;5076145;28;20043;-73
2023/01/06 07:28:04;;;;;;;3.78;1.90;;;10.00;99.90;;;;;;5076205;28;20035;-73
2023/01/06 07:30:30;;;;;;;3.88;1.60;;;10.00;99.90;;;;;;5070363;28;20117;-73
2023/01/06 07:32:56;;;;;;;3.28;1.70;;;10.00;99.90;;;;;;5079447;28;20032;-72
2023/01/06 07:35:21;;;;;;;3.28;1.85;;;10.00;99.90;;;;;;5095685;27;20044;-72
2023/01/06 07:37:47;;;;;;;3.60;1.65;;;10.00;99.90;;;;;;5080367;28;20032;-73
2023/01/06 07:40:13;;;;;;;2.67;1.20;;;10.00;99.90;;;;;;5074969;28;20090;-72
2023/01/06 07:42:38;;;;;;;4.05;1.75;;;10.00;99.90;;;;;;5070177;28;20036;-73
2023/01/06 07:45:06;;;;;;;3.78;1.90;;;10.00;99.90;;;;;;5066122;28;20195;-72
2023/01/06 07:47:32;;;;;;;3.08;1.45;;;10.00;99.90;;;;;;5072416;28;20045;-73
2023/01/06 07:49:57;;;;;;;3.80;1.45;;;10.00;99.90;;;;;;5075337;28;20051;-73
2023/01/06 07:52:23;;;;;;;2.92;1.33;;;10.00;99.90;;;;;;5074906;28;20553;-73
2023/01/06 07:54:48;;;;;;;3.05;1.60;;;10.00;99.90;;;;;;5076359;28;20055;-72
2023/01/06 07:57:14;;;;;;;2.40;1.48;;;10.00;99.90;;;;;;5069420;28;20032;-73
2023/01/06 07:59:40;;;;;;;2.20;1.20;;;10.00;99.90;;;;;;5056520;28;20150;-73
2023/01/06 08:02:05;;;;;;;2.35;1.23;;;10.00;99.90;;;;;;5068727;28;20047;-73
2023/01/06 08:04:33;;;;;;;3.15;1.25;;;10.00;99.90;;;;;;5072162;28;20052;-73
2023/01/06 08:06:59;;;;;;;3.17;1.10;;;10.10;99.90;;;;;;5068050;28;20056;-73
2023/01/06 08:09:25;;;;;;;1.63;1.00;;;10.00;99.90;;;;;;5071962;28;20071;-73
2023/01/06 08:11:50;;;;;;;3.65;0.68;;;10.10;99.90;;;;;;5070304;28;20094;-73
2023/01/06 08:14:16;;;;;;;1.30;0.70;;;10.00;99.90;;;;;;5063448;28;20143;-73
2023/01/06 08:16:42;;;;;;;1.85;0.70;;;10.00;99.90;;;;;;5068019;28;20076;-74
2023/01/06 08:19:07;;;;;;;1.83;0.70;;;10.00;99.90;;;;;;5071158;28;20036;-73
2023/01/06 08:21:33;;;;;;;1.67;0.32;;;9.90;99.90;;;;;;5070410;28;20050;-73
2023/01/06 08:23:58;;;;;;;1.40;0.40;;;9.90;99.90;;;;;;5068792;28;20120;-73
2023/01/06 08:26:24;;;;;;;1.75;0.20;;;9.80;99.90;;;;;;5069064;28;20047;-73
2023/01/06 08:28:50;;;;;;;0.98;0.50;;;9.80;99.90;;;;;;5067496;28;20048;-73
2023/01/06 08:31:19;;;;;;;0.52;0.30;;;9.70;99.90;;;;;;5072017;28;20085;-74
2023/01/06 08:33:45;;;;;;;2.78;0.60;;;9.70;99.90;;;;;;5069777;28;20051;-73
2023/01/06 08:36:15;;;;;;;0.73;0.30;;;9.60;99.90;;;;;;5068285;28;20067;-73
2023/01/06 08:38:41;;;;;;;0.52;0.22;;;9.60;99.90;;;;;;5055616;28;20036;-73
2023/01/06 08:41:07;;;;;;;0.63;0.20;;;9.60;99.90;;;;;;5067294;28;20032;-73
2023/01/06 08:43:33;;;;;;;1.63;0.38;;;9.50;99.90;;;;;;5066663;28;20068;-73
2023/01/06 08:46:00;;;;;;;0.43;0.22;;;9.50;99.90;;;;;;5073555;28;20105;-73
2023/01/06 08:48:27;;;;;;;0.77;0.20;;;9.40;99.90;;;;;;5067832;28;20032;-73
2023/01/06 08:50:53;;;;;;;2.33;0.28;;;9.40;99.90;;;;;;5074364;28;20591;-73
2023/01/06 08:53:19;;;;;;;1.35;0.50;;;9.40;99.90;;;;;;5102030;28;20116;-73
2023/01/06 08:55:44;;;;;;;0.95;0.52;;;9.40;99.90;;;;;;5066738;28;20047;-73
2023/01/06 08:58:10;;;;;;;0.75;0.47;;;9.40;99.90;;;;;;5071599;28;20029;-74
2023/01/06 09:00:39;;;;;;;0.35;0.22;;;9.30;99.90;;;;;;5063577;28;20505;-73
2023/01/06 09:03:05;;;;;;;0.32;0.28;;;9.30;99.90;;;;;;5053843;28;20043;-72
2023/01/06 09:05:31;;;;;;;1.25;0.35;;;9.30;99.90;;;;;;5071574;28;20040;-73
2023/01/06 09:07:57;;;;;;;1.35;0.22;;;9.30;99.90;;;;;;5074075;28;20117;-73
2023/01/06 09:10:23;;;;;;;0.50;0.30;;;9.30;99.90;;;;;;5058097;28;20056;-72
2023/01/06 09:12:48;;;;;;;0.90;0.30;;;9.20;99.90;;;;;;5077700;28;20690;-72
2023/01/06 09:15:14;;;;;;;0.55;0.25;;;9.20;99.90;;;;;;5067251;28;20047;-73
2023/01/06 09:17:40;;;;;;;1.27;0.10;;;9.20;99.90;;;;;;5072307;28;20024;-72
2023/01/06 09:20:06;;;;;;;1.60;0.20;;;9.20;99.90;;;;;;5068818;28;20094;-72
2023/01/06 09:22:32;;;;;;;2.28;0.30;;;9.20;99.90;;;;;;5070054;28;20094;-73
2023/01/06 09:24:57;;;;;;;0.93;0.20;;;9.20;99.90;;;;;;5071509;28;20055;-78
2023/01/06 09:27:23;;;;;;;0.38;0.30;;;9.20;99.90;;;;;;5064911;28;20078;-72
2023/01/06 09:29:49;;;;;;;1.25;0.20;;;9.20;99.90;;;;;;5066122;28;20383;-73
2023/01/06 09:32:14;;;;;;;2.33;0.63;;;9.20;99.90;;;;;;5069287;28;20440;-73
2023/01/06 09:34:40;;;;;;;1.70;0.30;;;9.10;99.90;;;;;;5067212;28;20060;-72
2023/01/06 09:37:06;;;;;;;1.17;0.28;;;9.20;99.90;;;;;;5072231;28;20048;-73
2023/01/06 09:39:32;;;;;;;0.65;0.25;;;9.20;99.90;;;;;;5075290;28;20060;-73
2023/01/06 09:42:00;;;;;;;1.13;0.22;;;9.10;99.90;;;;;;5077903;28;20059;-73
2023/01/06 09:44:32;;;;;;;2.20;0.30;;;9.10;99.90;;;;;;5084373;28;20494;-72
2023/01/06 09:46:59;;;;;;;1.38;0.10;;;9.20;99.90;;;;;;5070746;28;20059;-72
2023/01/06 09:49:42;;;;;;;3.63;0.50;;;9.10;99.90;;;;;;5071818;28;20518;-72
2023/01/06 09:52:21;;;;;;;1.50;0.43;;;9.10;99.90;;;;;;5070635;28;20090;-72
2023/01/06 09:54:54;;;;;;;1.45;0.25;;;9.10;99.90;;;;;;5059777;28;21577;-72
2023/01/06 09:57:45;;;;;;;0.38;0.20;;;9.10;99.90;;;;;;5056825;28;20165;-73
2023/01/06 10:00:35;;;;;;;0.00;0.00;;;9.10;99.90;;;;;;5070946;28;20048;-73
2023/01/06 10:03:01;;;;;;;0.25;0.08;;;9.10;99.90;;;;;;5072792;28;20089;-73
2023/01/06 10:06:04;;;;;;;0.57;0.57;;;9.10;99.90;;;;;;5076981;28;20047;-73
2023/01/06 10:09:02;;;;;;;0.93;0.35;;;9.10;99.90;;;;;;5077484;28;20118;-73
2023/01/06 10:11:56;;;;;;;0.52;0.30;;;9.10;99.90;;;;;;5036667;28;20089;-73
2023/01/06 10:14:47;;;;;;;1.40;0.40;;;9.10;99.90;;;;;;5087537;28;20059;-82
2023/01/06 10:17:43;;;;;;;1.23;0.10;;;9.20;99.90;;;;;;5075503;28;20426;-79
2023/01/06 10:20:45;;;;;;;2.33;0.40;;;9.10;99.90;;;;;;5071909;28;20593;-74
2023/01/06 10:23:49;;;;;;;0.98;0.17;;;9.10;99.90;;;;;;5052410;28;20359;-73
2023/01/06 10:26:26;;;;;;;2.55;0.38;;;9.10;99.90;;;;;;5061395;28;20048;-74
2023/01/06 10:28:54;;;;;;;2.08;0.22;;;9.20;99.90;;;;;;5108738;27;20036;-73
2023/01/06 10:31:26;;;;;;;3.30;0.20;;;9.10;99.90;;;;;;5074678;28;20121;-73
2023/01/06 10:33:54;;;;;;;0.20;0.20;;;9.20;99.90;;;;;;5052072;28;20036;-73
2023/01/06 10:36:50;;;;;;;1.17;0.22;;;9.20;99.90;;;;;;5056117;28;20044;-73
2023/01/06 10:39:19;;;;;;;5.43;0.20;;;9.20;99.90;;;;;;5056561;28;20055;-73
2023/01/06 10:41:51;;;;;;;1.00;0.30;;;9.20;99.90;;;;;;5056338;28;20042;-73
2023/01/06 10:44:17;;;;;;;0.47;0.30;;;9.20;99.90;;;;;;5070829;28;20134;-73
2023/01/06 10:46:46;;;;;;;0.65;0.20;;;9.20;99.90;;;;;;5082081;28;20440;-73
2023/01/06 10:49:16;;;;;;;2.13;0.30;;;9.20;99.90;;;;;;5073172;28;20044;-73
2023/01/06 10:51:47;;;;;;;1.00;0.38;;;9.30;99.90;;;;;;5087841;28;20039;-73
2023/01/06 10:54:27;;;;;;;1.13;0.10;;;9.20;99.90;;;;;;5059114;28;20033;-73
2023/01/06 10:56:58;;;;;;;0.25;0.10;;;9.30;99.90;;;;;;5083070;28;20028;-73
2023/01/06 10:59:24;;;;;;;0.38;0.25;;;9.30;99.90;;;;;;5085115;28;20040;-73
2023/01/06 11:01:52;;;;;;;0.47;0.20;;;9.30;99.90;;;;;;5081595;28;20393;-73
2023/01/06 11:04:18;;;;;;;6.93;0.55;;;9.30;99.90;;;;;;5075999;28;20481;-73
2023/01/06 11:06:53;;;;;;;2.22;0.30;;;9.20;99.90;;;;;;5053243;28;20516;-72
2023/01/06 11:09:32;;;;;;;2.00;0.30;;;9.20;99.90;;;;;;5055536;28;20064;-73
2023/01/06 11:12:01;;;;;;;0.45;0.20;;;9.20;99.90;;;;;;5058965;28;20047;-73
2023/01/06 11:14:31;;;;;;;0.98;0.25;;;9.20;99.90;;;;;;5074556;28;20044;-73
2023/01/06 11:17:03;;;;;;;4.70;0.40;;;9.20;99.90;;;;;;5087832;28;20047;-73
2023/01/06 11:19:38;;;;;;;1.85;0.40;;;9.30;99.90;;;;;;5065502;28;20041;-73
2023/01/06 11:22:24;;;;;;;1.05;0.22;;;9.30;99.90;;;;;;5049091;28;20055;-74
2023/01/06 11:24:53;;;;;;;2.03;0.60;;;9.30;99.90;;;;;;5066005;28;20044;-74
2023/01/06 11:27:19;;;;;;;1.08;0.38;;;9.30;99.90;;;;;;5099003;27;20036;-73
2023/01/06 11:29:44;;;;;;;1.05;0.32;;;9.30;99.90;;;;;;5068477;28;20051;-73
2023/01/06 11:32:26;;;;;;;1.45;0.50;;;9.40;99.90;;;;;;5076250;28;20506;-74
2023/01/06 11:35:01;;;;;;;1.30;0.32;;;9.40;99.90;;;;;;5075860;28;20063;-74
2023/01/06 11:37:37;;;;;;;0.88;0.30;;;9.40;99.90;;;;;;5070212;28;20654;-74
2023/01/06 11:40:18;;;;;;;2.03;0.55;;;9.50;99.90;;;;;;5067729;28;20044;-74
2023/01/06 11:42:50;;;;;;;0.93;0.40;;;9.50;99.90;;;;;;5060646;28;20055;-74
2023/01/06 11:45:33;;;;;;;1.27;0.40;;;9.50;99.90;;;;;;5070840;28;20040;-74
2023/01/06 11:47:59;;;;;;;2.00;0.20;;;9.50;99.90;;;;;;5064434;28;20040;-74
2023/01/06 11:50:25;;;;;;;2.45;0.65;;;9.50;99.90;;;;;;5076110;28;20071;-74
2023/01/06 11:53:03;;;;;;;0.68;0.10;;;9.50;99.90;;;;;;5071340;28;20478;-74
2023/01/06 11:55:29;;;;;;;1.83;0.47;;;9.50;99.90;;;;;;5065737;28;20135;-74
2023/01/06 11:58:00;;;;;;;3.05;0.80;;;9.50;99.90;;;;;;5069847;28;20040;-74
2023/01/06 12:00:40;;;;;;;0.70;0.25;;;9.50;99.90;;;;;;5066006;28;20040;-74
2023/01/06 12:03:22;;;;;;;0.63;0.20;;;9.50;99.90;;;;;;5070509;28;20035;-73
2023/01/06 12:06:09;;;;;;;2.42;0.40;;;9.50;99.90;;;;;;5072373;28;20063;-73
2023/01/06 12:09:12;;;;;;;5.18;0.57;;;9.50;99.90;;;;;;5069284;28;20078;-73
2023/01/06 12:11:45;;;;;;;1.50;0.40;;;9.50;99.90;;;;;;5073036;28;20510;-73
2023/01/06 12:14:16;;;;;;;4.97;0.47;;;9.50;99.90;;;;;;5073371;28;20036;-74
2023/01/06 12:16:51;;;;;;;1.52;0.50;;;9.50;99.90;;;;;;5067642;28;20032;-73
2023/01/06 12:19:23;;;;;;;1.90;0.30;;;9.50;99.90;;;;;;5061377;28;20480;-79
2023/01/06 12:21:49;;;;;;;1.83;0.68;;;9.50;99.90;;;;;;5067005;28;20048;-74
2023/01/06 12:24:18;;;;;;;3.38;1.27;;;9.50;99.90;;;;;;5090447;28;20056;-75
2023/01/06 12:26:45;;;;;;;0.73;0.30;;;9.50;99.90;;;;;;5061887;28;20040;-74
2023/01/06 12:29:17;;;;;;;2.65;0.85;;;9.50;99.90;;;;;;5072344;28;20047;-74
2023/01/06 12:32:22;;;;;;;0.95;0.30;;;9.50;99.90;;;;;;5070144;28;20048;-74
2023/01/06 12:34:50;;;;;;;0.43;0.20;;;9.40;99.90;;;;;;5010668;28;20052;-74
2023/01/06 12:37:16;;;;;;;2.08;0.40;;;9.50;99.90;;;;;;5064897;28;20044;-74
2023/01/06 12:39:58;;;;;;;1.00;0.30;;;9.40;99.90;;;;;;5064708;28;20097;-73
2023/01/06 12:42:36;;;;;;;5.68;0.43;;;9.40;99.90;;;;;;5059617;28;20039;-73
2023/01/06 12:45:13;;;;;;;1.40;0.47;;;9.40;99.90;;;;;;5069672;28;20097;-74
2023/01/06 12:47:48;;;;;;;1.67;0.32;;;9.40;99.90;;;;;;5050149;28;20100;-80
2023/01/06 12:50:32;;;;;;;1.35;0.30;;;9.40;99.90;;;;;;5066999;28;20034;-73
2023/01/06 12:53:20;;;;;;;2.55;0.82;;;9.40;99.90;;;;;;5067059;28;20032;-73
2023/01/06 12:56:17;;;;;;;0.98;0.35;;;9.40;99.90;;;;;;5074019;28;20394;-73
2023/01/06 12:59:05;;;;;;;2.78;0.52;;;9.40;99.90;;;;;;5050712;28;20043;-73
2023/01/06 13:01:50;;;;;;;0.47;0.30;;;9.40;99.90;;;;;;5065968;28;20048;-73
2023/01/06 13:05:01;;;;;;;2.30;0.40;;;9.50;99.90;;;;;;5077779;28;20036;-73
2023/01/06 13:07:45;;;;;;;1.15;0.43;;;9.50;99.90;;;;;;5071088;28;21545;-73
2023/01/06 13:10:36;;;;;;;1.65;0.47;;;9.50;99.90;;;;;;5077320;28;20040;-73
2023/01/06 13:13:33;;;;;;;4.07;0.70;;;9.50;99.90;;;;;;5066111;28;20037;-73